Time;durP1;ratioP1;P1;durP2;ratioP2;P2;SDS_P1;SDS_P2;PMS_P1;PMS_P2;Temp;Humidity;BMP_temperature;BMP_pressure;BME280_temperature;BME280_humidity;BME280_pressure;Samples;Min_cycle;Max_cycle;Signal;HPM_P1;HPM_P2
2023/06/12 00:02:08;;;;;;;6.70;6.20;;;;;;;;;;5004691;28;20441;-74
2023/06/12 00:04:34;;;;;;;6.07;5.55;;;;;;;;;;4997210;28;20030;-74
2023/06/12 00:07:01;;;;;;;6.72;6.13;;;;;;;;;;4996336;28;20425;-76
2023/06/12 00:09:27;;;;;;;7.35;6.07;;;;;;;;;;5003532;28;20460;-76
2023/06/12 00:11:52;;;;;;;6.40;5.63;;;;;;;;;;5003759;28;20022;-75
2023/06/12 00:14:17;;;;;;;6.35;5.38;;;;;;;;;;5004637;28;20057;-77
2023/06/12 00:16:43;;;;;;;6.57;5.88;;;;;;;;;;4994258;28;20022;-76
2023/06/12 00:19:09;;;;;;;6.10;5.60;;;;;;;;;;5000000;28;20472;-75
2023/06/12 00:21:35;;;;;;;11.73;5.88;;;;;;;;;;5004035;28;20025;-75
2023/06/12 00:24:00;;;;;;;5.75;5.25;;;;;;;;;;4996249;28;20067;-74
2023/06/12 00:26:26;;;;;;;10.60;6.05;;;;;;;;;;4997341;28;20038;-74
2023/06/12 00:28:51;;;;;;;6.78;5.65;;;;;;;;;;5003115;28;20453;-75
2023/06/12 00:31:17;;;;;;;6.40;5.80;;;;;;;;;;5003981;28;20029;-77
2023/06/12 00:33:42;;;;;;;6.95;5.75;;;;;;;;;;4996962;28;20034;-75
2023/06/12 00:36:07;;;;;;;6.68;5.72;;;;;;;;;;4994789;28;20021;-75
2023/06/12 00:38:34;;;;;;;6.57;5.53;;;;;;;;;;5003925;28;20378;-76
2023/06/12 00:41:00;;;;;;;5.72;5.22;;;;;;;;;;5003274;28;20030;-74
2023/06/12 00:43:25;;;;;;;6.07;5.47;;;;;;;;;;5000553;28;20056;-75
2023/06/12 00:45:50;;;;;;;6.40;5.80;;;;;;;;;;4991074;28;20025;-76
2023/06/12 00:48:16;;;;;;;8.10;6.80;;;;;;;;;;5003897;28;20049;-76
2023/06/12 00:50:44;;;;;;;8.30;6.43;;;;;;;;;;5003802;28;20425;-76
2023/06/12 00:53:10;;;;;;;8.43;5.88;;;;;;;;;;5002020;28;20079;-74
2023/06/12 00:55:35;;;;;;;7.95;6.28;;;;;;;;;;4984339;28;20438;-77
2023/06/12 00:58:01;;;;;;;6.30;5.65;;;;;;;;;;4998731;28;20061;-76
2023/06/12 01:00:27;;;;;;;7.07;6.00;;;;;;;;;;4990158;28;20139;-75
2023/06/12 01:03:06;;;;;;;7.50;6.28;;;;;;;;;;4987798;28;20447;-77
2023/06/12 01:05:40;;;;;;;8.75;6.30;;;;;;;;;;5003374;28;20044;-76
2023/06/12 01:08:17;;;;;;;7.03;6.47;;;;;;;;;;5002114;28;20022;-75
2023/06/12 01:10:45;;;;;;;10.35;6.32;;;;;;;;;;4989519;28;20065;-77
2023/06/12 01:13:11;;;;;;;6.85;6.15;;;;;;;;;;5002678;28;20331;-75
2023/06/12 01:15:37;;;;;;;8.65;5.95;;;;;;;;;;5002052;28;20033;-76
2023/06/12 01:18:03;;;;;;;7.78;6.05;;;;;;;;;;5018359;28;20036;-76
2023/06/12 01:20:29;;;;;;;7.13;6.53;;;;;;;;;;4983886;28;20453;-77
2023/06/12 01:22:59;;;;;;;7.60;6.10;;;;;;;;;;4982158;28;20038;-76
2023/06/12 01:25:57;;;;;;;9.30;6.70;;;;;;;;;;4987054;28;20026;-75
2023/06/12 01:28:22;;;;;;;7.68;6.95;;;;;;;;;;4998621;28;20034;-76
2023/06/12 01:30:54;;;;;;;7.30;6.60;;;;;;;;;;5002851;28;20029;-76
2023/06/12 01:33:20;;;;;;;7.40;6.55;;;;;;;;;;5002693;28;20117;-75
2023/06/12 01:35:47;;;;;;;7.03;6.28;;;;;;;;;;4997334;28;20048;-75
2023/06/12 01:38:16;;;;;;;6.82;6.18;;;;;;;;;;4990286;28;20491;-75
2023/06/12 01:40:44;;;;;;;7.20;6.60;;;;;;;;;;5002270;28;20029;-75
2023/06/12 01:43:10;;;;;;;6.97;6.38;;;;;;;;;;4984591;28;20392;-75
2023/06/12 01:45:35;;;;;;;7.30;6.70;;;;;;;;;;4987150;28;20018;-76
2023/06/12 01:48:00;;;;;;;7.85;7.03;;;;;;;;;;4999000;28;20345;-77
2023/06/12 01:50:26;;;;;;;10.52;6.60;;;;;;;;;;5002391;28;20040;-75
2023/06/12 01:52:51;;;;;;;9.35;8.10;;;;;;;;;;5002348;28;20481;-77
2023/06/12 01:55:19;;;;;;;8.20;7.28;;;;;;;;;;4986729;28;20630;-77
2023/06/12 01:57:44;;;;;;;8.60;7.35;;;;;;;;;;5001562;28;20385;-76
2023/06/12 02:00:10;;;;;;;12.13;7.72;;;;;;;;;;5002249;28;20030;-75
2023/06/12 02:02:36;;;;;;;8.38;7.03;;;;;;;;;;4985627;28;20022;-75
2023/06/12 02:05:01;;;;;;;8.45;6.93;;;;;;;;;;5001745;28;20037;-76
2023/06/12 02:07:27;;;;;;;7.93;6.93;;;;;;;;;;5001239;28;20921;-77
2023/06/12 02:09:52;;;;;;;7.70;6.93;;;;;;;;;;4993087;28;20073;-75
2023/06/12 02:12:17;;;;;;;7.18;6.47;;;;;;;;;;4998274;28;20029;-76
2023/06/12 02:14:43;;;;;;;7.45;6.75;;;;;;;;;;4989391;28;20049;-74
2023/06/12 02:17:08;;;;;;;7.82;7.15;;;;;;;;;;4985510;28;20025;-75
2023/06/12 02:19:33;;;;;;;10.88;9.30;;;;;;;;;;5001169;28;20026;-75
2023/06/12 02:21:59;;;;;;;11.45;9.60;;;;;;;;;;4989752;28;20033;-75
2023/06/12 02:24:25;;;;;;;9.80;7.82;;;;;;;;;;4998196;28;20084;-75
2023/06/12 02:26:51;;;;;;;8.80;7.00;;;;;;;;;;5001848;28;20071;-77
2023/06/12 02:29:16;;;;;;;15.07;8.20;;;;;;;;;;4989614;28;20053;-75
2023/06/12 02:31:42;;;;;;;9.93;7.70;;;;;;;;;;4995634;28;20072;-75
2023/06/12 02:34:07;;;;;;;8.00;7.30;;;;;;;;;;5000873;28;20037;-76
2023/06/12 02:36:33;;;;;;;9.60;7.95;;;;;;;;;;5001043;28;20408;-75
2023/06/12 02:38:59;;;;;;;8.45;7.70;;;;;;;;;;4983244;28;20026;-74
2023/06/12 02:41:25;;;;;;;8.30;7.50;;;;;;;;;;4999405;28;20049;-75
2023/06/12 02:43:51;;;;;;;10.38;6.82;;;;;;;;;;5001639;28;20034;-75
2023/06/12 02:46:16;;;;;;;9.20;7.32;;;;;;;;;;4996632;28;20331;-75
2023/06/12 02:48:41;;;;;;;7.63;6.95;;;;;;;;;;4992586;28;20068;-76
2023/06/12 02:51:07;;;;;;;9.90;6.80;;;;;;;;;;5001401;28;20393;-75
2023/06/12 02:53:32;;;;;;;7.57;6.88;;;;;;;;;;5001265;28;20124;-75
2023/06/12 02:55:57;;;;;;;7.93;7.15;;;;;;;;;;5001995;28;20324;-75
2023/06/12 02:58:23;;;;;;;8.15;7.45;;;;;;;;;;5001836;28;20053;-76
2023/06/12 03:00:48;;;;;;;11.38;7.47;;;;;;;;;;4994634;28;20013;-75
2023/06/12 03:03:14;;;;;;;8.63;7.57;;;;;;;;;;4992584;28;20030;-76
2023/06/12 03:05:41;;;;;;;9.50;8.45;;;;;;;;;;5002175;28;20026;-75
2023/06/12 03:08:08;;;;;;;8.77;7.97;;;;;;;;;;5001172;28;20030;-75
2023/06/12 03:10:34;;;;;;;8.75;7.95;;;;;;;;;;5001328;28;20080;-76
2023/06/12 03:12:59;;;;;;;8.85;8.05;;;;;;;;;;5001885;28;20037;-76
2023/06/12 03:15:24;;;;;;;9.73;8.40;;;;;;;;;;5001672;28;21155;-75
2023/06/12 03:17:50;;;;;;;10.43;8.35;;;;;;;;;;5001325;28;20058;-75
2023/06/12 03:20:15;;;;;;;10.27;9.05;;;;;;;;;;5003372;28;20064;-76
2023/06/12 03:22:41;;;;;;;9.65;8.35;;;;;;;;;;4988992;28;20030;-75
2023/06/12 03:25:07;;;;;;;8.38;7.57;;;;;;;;;;5004923;28;20045;-75
2023/06/12 03:27:32;;;;;;;9.25;8.35;;;;;;;;;;5004668;28;20593;-75
2023/06/12 03:29:57;;;;;;;10.80;8.68;;;;;;;;;;5004201;28;20022;-75
2023/06/12 03:32:23;;;;;;;10.27;9.23;;;;;;;;;;5004060;28;20033;-76
2023/06/12 03:34:48;;;;;;;10.35;9.32;;;;;;;;;;5004503;28;20120;-75
2023/06/12 03:37:13;;;;;;;10.98;8.77;;;;;;;;;;5003987;28;21164;-76
2023/06/12 03:39:39;;;;;;;8.82;7.93;;;;;;;;;;5004333;28;20079;-76
2023/06/12 03:42:04;;;;;;;10.98;8.20;;;;;;;;;;5003759;28;20060;-75
2023/06/12 03:44:30;;;;;;;9.50;8.55;;;;;;;;;;4993774;28;20421;-75
2023/06/12 03:46:55;;;;;;;9.30;8.23;;;;;;;;;;5000876;28;20030;-75
2023/06/12 03:49:21;;;;;;;10.00;8.70;;;;;;;;;;5003940;28;20113;-75
2023/06/12 03:51:46;;;;;;;9.15;8.25;;;;;;;;;;5004092;28;20033;-75
2023/06/12 03:54:11;;;;;;;8.73;8.00;;;;;;;;;;5004382;28;20080;-76
2023/06/12 03:56:37;;;;;;;11.63;8.60;;;;;;;;;;4988580;28;20045;-76
2023/06/12 03:59:02;;;;;;;9.88;8.90;;;;;;;;;;4983689;28;20034;-76
2023/06/12 04:01:27;;;;;;;9.52;8.65;;;;;;;;;;4994133;28;20022;-76
2023/06/12 04:03:53;;;;;;;10.07;8.93;;;;;;;;;;5002784;28;20033;-75
2023/06/12 04:06:21;;;;;;;9.13;8.23;;;;;;;;;;4988344;28;20022;-76
2023/06/12 04:08:46;;;;;;;10.45;8.98;;;;;;;;;;4989026;28;20376;-76
2023/06/12 04:11:14;;;;;;;9.73;8.75;;;;;;;;;;4990188;28;20060;-76
2023/06/12 04:13:40;;;;;;;11.13;10.00;;;;;;;;;;4989610;28;20080;-77
2023/06/12 04:16:06;;;;;;;11.13;10.00;;;;;;;;;;4988513;28;20054;-77
2023/06/12 04:18:32;;;;;;;14.45;9.95;;;;;;;;;;4989029;28;20014;-77
2023/06/12 04:21:00;;;;;;;13.50;9.73;;;;;;;;;;4986654;28;20040;-76
2023/06/12 04:23:29;;;;;;;10.77;9.70;;;;;;;;;;4987607;28;20068;-77
2023/06/12 04:26:04;;;;;;;12.65;10.10;;;;;;;;;;4993566;28;20030;-78
2023/06/12 04:28:33;;;;;;;10.10;9.15;;;;;;;;;;5003415;28;20053;-77
2023/06/12 04:30:59;;;;;;;10.25;9.35;;;;;;;;;;5004205;28;20026;-76
2023/06/12 04:33:28;;;;;;;11.13;9.10;;;;;;;;;;4990809;28;20038;-76
2023/06/12 04:35:55;;;;;;;9.93;9.03;;;;;;;;;;4988560;28;20438;-76
2023/06/12 04:38:23;;;;;;;9.85;9.05;;;;;;;;;;4999487;28;20025;-77
2023/06/12 04:40:51;;;;;;;11.40;8.80;;;;;;;;;;5004059;28;20048;-75
2023/06/12 04:43:19;;;;;;;11.23;9.02;;;;;;;;;;5003775;28;20350;-77
2023/06/12 04:45:44;;;;;;;14.15;9.68;;;;;;;;;;4995634;28;20032;-77
2023/06/12 04:48:09;;;;;;;10.75;9.65;;;;;;;;;;4995708;28;20025;-76
2023/06/12 04:50:36;;;;;;;9.95;8.95;;;;;;;;;;5003186;28;20421;-77
2023/06/12 04:53:02;;;;;;;10.90;10.00;;;;;;;;;;5003143;28;20044;-77
2023/06/12 04:55:28;;;;;;;10.40;9.43;;;;;;;;;;5003155;28;20465;-76
2023/06/12 04:57:53;;;;;;;10.68;9.68;;;;;;;;;;5003846;28;20041;-76
2023/06/12 05:00:20;;;;;;;10.80;9.77;;;;;;;;;;5002551;28;20040;-77
2023/06/12 05:02:46;;;;;;;10.85;9.85;;;;;;;;;;5003139;28;20069;-76
2023/06/12 05:05:11;;;;;;;11.00;9.68;;;;;;;;;;5002995;28;20041;-76
2023/06/12 05:07:37;;;;;;;10.82;9.93;;;;;;;;;;4989655;28;20030;-77
2023/06/12 05:10:02;;;;;;;11.70;9.25;;;;;;;;;;4988288;28;20033;-76
2023/06/12 05:12:28;;;;;;;10.20;9.20;;;;;;;;;;4984809;28;20447;-75
2023/06/12 05:14:53;;;;;;;10.63;9.55;;;;;;;;;;4987476;28;20037;-77
2023/06/12 05:17:18;;;;;;;11.02;10.02;;;;;;;;;;4995254;28;20045;-76
2023/06/12 05:19:44;;;;;;;10.02;9.10;;;;;;;;;;5003731;28;20044;-77
2023/06/12 05:22:09;;;;;;;10.90;9.80;;;;;;;;;;5003189;28;20110;-77
2023/06/12 05:24:35;;;;;;;10.40;9.40;;;;;;;;;;5002455;28;20057;-76
2023/06/12 05:27:01;;;;;;;9.32;8.32;;;;;;;;;;5002868;28;20426;-76
2023/06/12 05:29:26;;;;;;;10.43;9.60;;;;;;;;;;5003229;28;20022;-76
2023/06/12 05:31:52;;;;;;;10.30;8.93;;;;;;;;;;5002710;28;20026;-75
2023/06/12 05:34:17;;;;;;;9.80;9.00;;;;;;;;;;5002718;28;20346;-75
2023/06/12 05:36:42;;;;;;;10.68;9.23;;;;;;;;;;5002569;28;20587;-75
2023/06/12 05:39:08;;;;;;;10.55;9.48;;;;;;;;;;5002671;28;20095;-75
2023/06/12 05:41:34;;;;;;;10.95;10.05;;;;;;;;;;5001634;28;20112;-76
2023/06/12 05:44:00;;;;;;;9.13;8.32;;;;;;;;;;5002260;28;20034;-76
2023/06/12 05:46:26;;;;;;;10.02;9.13;;;;;;;;;;4984196;28;20018;-76
2023/06/12 05:48:51;;;;;;;11.30;9.27;;;;;;;;;;4999443;28;20036;-76
2023/06/12 05:51:16;;;;;;;9.73;8.93;;;;;;;;;;5001874;28;20638;-75
2023/06/12 05:53:45;;;;;;;12.30;9.13;;;;;;;;;;5002101;28;20045;-75
2023/06/12 05:56:13;;;;;;;9.48;8.23;;;;;;;;;;5001528;28;20030;-76
2023/06/12 05:58:39;;;;;;;10.18;9.27;;;;;;;;;;5000583;28;20017;-75
2023/06/12 06:01:04;;;;;;;11.15;9.50;;;;;;;;;;4986518;28;20033;-76
2023/06/12 06:03:32;;;;;;;9.77;8.98;;;;;;;;;;4992404;28;20026;-76
2023/06/12 06:05:58;;;;;;;10.15;9.25;;;;;;;;;;5002152;28;20037;-76
2023/06/12 06:08:23;;;;;;;9.20;8.40;;;;;;;;;;5002354;28;20044;-76
2023/06/12 06:10:48;;;;;;;9.35;8.45;;;;;;;;;;5001572;28;20454;-76
2023/06/12 06:13:14;;;;;;;9.77;8.73;;;;;;;;;;5002845;28;20053;-76
2023/06/12 06:15:39;;;;;;;9.38;8.57;;;;;;;;;;5002375;28;20373;-76
2023/06/12 06:18:06;;;;;;;9.40;8.50;;;;;;;;;;5000582;28;20037;-77
2023/06/12 06:20:32;;;;;;;8.95;7.75;;;;;;;;;;5002809;28;20040;-77
2023/06/12 06:22:58;;;;;;;9.98;9.00;;;;;;;;;;5003058;28;20026;-76
2023/06/12 06:25:23;;;;;;;9.50;8.48;;;;;;;;;;5001609;28;20029;-77
2023/06/12 06:27:48;;;;;;;8.52;7.78;;;;;;;;;;5002358;28;20026;-76
2023/06/12 06:30:14;;;;;;;11.25;8.02;;;;;;;;;;5001961;28;20026;-77
2023/06/12 06:32:39;;;;;;;9.02;8.30;;;;;;;;;;5002576;28;20099;-75
2023/06/12 06:35:05;;;;;;;9.45;8.55;;;;;;;;;;5002361;28;20058;-76
2023/06/12 06:37:31;;;;;;;9.18;8.35;;;;;;;;;;5002722;28;20021;-77
2023/06/12 06:39:56;;;;;;;8.70;7.88;;;;;;;;;;5001317;28;20358;-76
2023/06/12 06:42:21;;;;;;;8.88;7.97;;;;;;;;;;5002254;28;20061;-76
2023/06/12 06:44:49;;;;;;;9.13;8.32;;;;;;;;;;5001515;28;20045;-76
2023/06/12 06:47:14;;;;;;;7.97;7.35;;;;;;;;;;5002217;28;20026;-76
2023/06/12 06:49:40;;;;;;;8.25;7.55;;;;;;;;;;5002105;28;20029;-76
2023/06/12 06:52:05;;;;;;;8.77;7.97;;;;;;;;;;5002021;28;20060;-76
2023/06/12 06:54:31;;;;;;;8.40;7.60;;;;;;;;;;5004699;28;20497;-76
2023/06/12 06:56:56;;;;;;;9.18;8.32;;;;;;;;;;5005023;28;20461;-75
2023/06/12 06:59:22;;;;;;;8.48;7.78;;;;;;;;;;5005374;28;20728;-76
2023/06/12 07:01:47;;;;;;;8.15;7.35;;;;;;;;;;5006126;28;20026;-76
2023/06/12 07:04:13;;;;;;;9.75;7.63;;;;;;;;;;5005704;28;20464;-77
2023/06/12 07:06:38;;;;;;;8.60;7.80;;;;;;;;;;5005166;28;20041;-76
2023/06/12 07:09:04;;;;;;;8.45;7.75;;;;;;;;;;5005498;28;20040;-75
2023/06/12 07:11:29;;;;;;;10.38;8.52;;;;;;;;;;5005463;28;20207;-76
2023/06/12 07:13:55;;;;;;;9.52;8.18;;;;;;;;;;5005803;28;20081;-76
2023/06/12 07:16:20;;;;;;;9.40;8.57;;;;;;;;;;5005389;28;20081;-75
2023/06/12 07:18:46;;;;;;;10.30;9.40;;;;;;;;;;5005029;28;20026;-77
2023/06/12 07:21:11;;;;;;;11.02;9.93;;;;;;;;;;5005541;28;20100;-76
2023/06/12 07:23:36;;;;;;;13.18;11.02;;;;;;;;;;5004923;28;20036;-76
2023/06/12 07:26:02;;;;;;;14.35;10.73;;;;;;;;;;5005674;28;20436;-76
2023/06/12 07:28:28;;;;;;;12.55;11.35;;;;;;;;;;5005303;28;20065;-75
2023/06/12 07:30:53;;;;;;;13.63;12.20;;;;;;;;;;5005159;28;20033;-75
2023/06/12 07:33:19;;;;;;;13.02;11.65;;;;;;;;;;5005185;28;20025;-75
2023/06/12 07:35:44;;;;;;;13.15;11.85;;;;;;;;;;5004811;28;20088;-76
2023/06/12 07:38:11;;;;;;;12.15;10.95;;;;;;;;;;5003888;28;20148;-75
2023/06/12 07:40:36;;;;;;;15.73;11.95;;;;;;;;;;5004755;28;20030;-75
2023/06/12 07:43:02;;;;;;;12.93;11.63;;;;;;;;;;5004389;28;20045;-76
2023/06/12 07:45:27;;;;;;;12.75;11.55;;;;;;;;;;5004176;28;20033;-75
2023/06/12 07:47:55;;;;;;;12.43;11.38;;;;;;;;;;5004174;28;20030;-75
2023/06/12 07:50:20;;;;;;;12.27;11.23;;;;;;;;;;5004336;28;20022;-75
2023/06/12 07:52:45;;;;;;;12.85;11.65;;;;;;;;;;5004586;28;20048;-77
2023/06/12 07:55:11;;;;;;;16.65;10.68;;;;;;;;;;5004238;28;20034;-76
2023/06/12 07:57:37;;;;;;;13.45;12.15;;;;;;;;;;5004200;28;20050;-76
2023/06/12 08:00:05;;;;;;;12.45;10.95;;;;;;;;;;5003207;28;20415;-76
2023/06/12 08:02:33;;;;;;;13.77;12.38;;;;;;;;;;5003552;28;20079;-76
2023/06/12 08:04:59;;;;;;;13.23;11.98;;;;;;;;;;5003191;28;20389;-75
2023/06/12 08:07:26;;;;;;;13.27;12.05;;;;;;;;;;5004347;28;20026;-77
2023/06/12 08:09:51;;;;;;;14.15;12.68;;;;;;;;;;5003273;28;20586;-75
2023/06/12 08:12:17;;;;;;;13.27;11.93;;;;;;;;;;5004195;28;20133;-75
2023/06/12 08:14:42;;;;;;;12.82;11.68;;;;;;;;;;5003825;28;20477;-76
2023/06/12 08:17:08;;;;;;;12.85;11.60;;;;;;;;;;5003573;28;20034;-76
2023/06/12 08:19:34;;;;;;;12.10;10.90;;;;;;;;;;5003333;28;20041;-76
2023/06/12 08:22:00;;;;;;;11.38;10.27;;;;;;;;;;5003922;28;20026;-76
2023/06/12 08:24:29;;;;;;;13.60;11.82;;;;;;;;;;5002909;28;20087;-76
2023/06/12 08:26:55;;;;;;;12.85;11.55;;;;;;;;;;5003852;28;20037;-76
2023/06/12 08:29:20;;;;;;;11.27;10.18;;;;;;;;;;5003700;28;20026;-76
2023/06/12 08:31:46;;;;;;;12.98;11.68;;;;;;;;;;5003313;28;20120;-76
2023/06/12 08:34:11;;;;;;;12.23;11.13;;;;;;;;;;5003665;28;20036;-75
2023/06/12 08:36:37;;;;;;;11.50;10.30;;;;;;;;;;5003424;28;20041;-76
2023/06/12 08:39:02;;;;;;;12.63;11.30;;;;;;;;;;5003449;28;20105;-75
2023/06/12 08:41:29;;;;;;;13.52;11.32;;;;;;;;;;5003728;28;20029;-76
2023/06/12 08:43:56;;;;;;;12.77;11.57;;;;;;;;;;5003774;28;20430;-77
2023/06/12 08:46:22;;;;;;;13.02;11.60;;;;;;;;;;5004043;28;20030;-76
2023/06/12 08:48:48;;;;;;;11.90;10.75;;;;;;;;;;5003861;28;20044;-76
2023/06/12 08:51:14;;;;;;;12.77;11.57;;;;;;;;;;5003563;28;20455;-76
2023/06/12 08:53:39;;;;;;;12.80;11.50;;;;;;;;;;5003822;28;20485;-76
2023/06/12 08:56:06;;;;;;;12.95;11.73;;;;;;;;;;5003453;28;20026;-76
2023/06/12 08:58:31;;;;;;;12.68;11.57;;;;;;;;;;5002831;28;20041;-76
2023/06/12 09:00:57;;;;;;;13.20;12.00;;;;;;;;;;5003413;28;20111;-76
2023/06/12 09:03:22;;;;;;;14.40;12.32;;;;;;;;;;5003328;28;20034;-77
2023/06/12 09:05:51;;;;;;;12.98;11.88;;;;;;;;;;5003475;28;20044;-77
2023/06/12 09:08:16;;;;;;;11.77;10.77;;;;;;;;;;5003259;28;20060;-76
2023/06/12 09:10:43;;;;;;;13.43;12.02;;;;;;;;;;5002362;28;20073;-76
2023/06/12 09:13:12;;;;;;;12.73;11.73;;;;;;;;;;5001947;28;20018;-76
2023/06/12 09:15:38;;;;;;;13.55;12.35;;;;;;;;;;5002153;28;20409;-74
2023/06/12 09:18:07;;;;;;;14.35;12.95;;;;;;;;;;5001475;28;20041;-74
2023/06/12 09:20:33;;;;;;;13.23;11.95;;;;;;;;;;5003197;28;20030;-75
2023/06/12 09:23:04;;;;;;;14.52;13.20;;;;;;;;;;5003172;28;20495;-75
2023/06/12 09:25:29;;;;;;;13.57;12.27;;;;;;;;;;5002591;28;20108;-74
2023/06/12 09:27:54;;;;;;;14.45;13.25;;;;;;;;;;5002122;28;20184;-76
2023/06/12 09:30:20;;;;;;;14.85;13.35;;;;;;;;;;5001445;28;20048;-76
2023/06/12 09:32:45;;;;;;;16.00;14.43;;;;;;;;;;5002205;28;20026;-75
2023/06/12 09:35:12;;;;;;;16.27;14.65;;;;;;;;;;5001995;28;20069;-75
2023/06/12 09:37:38;;;;;;;15.15;13.95;;;;;;;;;;5001946;28;20036;-76
2023/06/12 09:40:08;;;;;;;15.82;14.35;;;;;;;;;;5001944;28;20128;-74
2023/06/12 09:42:35;;;;;;;16.92;15.30;;;;;;;;;;5001312;28;20029;-74
2023/06/12 09:45:09;;;;;;;17.25;15.75;;;;;;;;;;5001895;28;20455;-75
2023/06/12 09:47:38;;;;;;;15.95;14.55;;;;;;;;;;5001401;28;20026;-74
2023/06/12 09:50:04;;;;;;;17.23;14.90;;;;;;;;;;5002035;28;20492;-75
2023/06/12 09:52:29;;;;;;;16.52;14.75;;;;;;;;;;5002253;28;20163;-75
2023/06/12 09:54:56;;;;;;;16.63;14.93;;;;;;;;;;5001135;28;20144;-75
2023/06/12 09:57:21;;;;;;;16.85;15.27;;;;;;;;;;5001187;28;20113;-74
2023/06/12 09:59:47;;;;;;;15.73;14.38;;;;;;;;;;5001483;28;20057;-75
2023/06/12 10:02:15;;;;;;;15.07;13.70;;;;;;;;;;5001361;28;20508;-75
2023/06/12 10:04:47;;;;;;;15.60;14.10;;;;;;;;;;5001618;28;20064;-76
2023/06/12 10:07:18;;;;;;;14.50;13.13;;;;;;;;;;5001834;28;20034;-75
2023/06/12 10:09:44;;;;;;;14.57;13.18;;;;;;;;;;5001428;28;20040;-75
2023/06/12 10:12:10;;;;;;;13.90;12.48;;;;;;;;;;5001784;28;20029;-75
2023/06/12 10:14:37;;;;;;;13.57;12.25;;;;;;;;;;5001985;28;20438;-76
2023/06/12 10:17:03;;;;;;;13.88;12.00;;;;;;;;;;5002009;28;20132;-77
2023/06/12 10:19:30;;;;;;;12.95;11.73;;;;;;;;;;5002552;28;20356;-75
2023/06/12 10:21:56;;;;;;;13.32;11.90;;;;;;;;;;5002100;28;20014;-76
2023/06/12 10:24:22;;;;;;;15.27;11.70;;;;;;;;;;5001854;28;20032;-74
2023/06/12 10:26:50;;;;;;;15.10;11.25;;;;;;;;;;5002692;28;20032;-75
2023/06/12 10:29:32;;;;;;;13.07;11.98;;;;;;;;;;5004585;28;20029;-75
2023/06/12 10:32:05;;;;;;;13.30;11.95;;;;;;;;;;5005940;28;20030;-76
2023/06/12 10:34:33;;;;;;;13.02;11.70;;;;;;;;;;5006328;28;20048;-76
2023/06/12 10:37:18;;;;;;;13.10;11.68;;;;;;;;;;5005643;28;20022;-77
2023/06/12 10:39:45;;;;;;;13.05;11.93;;;;;;;;;;5006328;28;20022;-76
2023/06/12 10:42:11;;;;;;;12.93;11.93;;;;;;;;;;5005806;28;20056;-76
2023/06/12 10:44:36;;;;;;;13.43;12.13;;;;;;;;;;5005752;28;20076;-76
2023/06/12 10:47:02;;;;;;;12.13;11.13;;;;;;;;;;5005932;28;20030;-77
2023/06/12 10:49:27;;;;;;;11.85;10.75;;;;;;;;;;5006095;28;20030;-76
2023/06/12 10:51:53;;;;;;;12.82;11.32;;;;;;;;;;5004830;28;20038;-76
2023/06/12 10:54:26;;;;;;;11.98;10.88;;;;;;;;;;5021030;28;20079;-76
2023/06/12 10:57:01;;;;;;;11.63;10.40;;;;;;;;;;5005414;28;20065;-76
2023/06/12 10:59:45;;;;;;;11.32;10.30;;;;;;;;;;5004899;28;20109;-76
2023/06/12 11:02:10;;;;;;;10.32;9.32;;;;;;;;;;5005085;28;20057;-76
2023/06/12 11:04:37;;;;;;;11.70;10.60;;;;;;;;;;5004791;28;20069;-74
2023/06/12 11:07:03;;;;;;;11.43;10.35;;;;;;;;;;5005662;28;20060;-75
2023/06/12 11:09:32;;;;;;;10.02;9.02;;;;;;;;;;5021365;28;20030;-76
2023/06/12 11:11:57;;;;;;;;;;;;;;;;;;5005215;28;20026;-75
2023/06/12 11:14:26;;;;;;;8.33;7.63;;;;;;;;;;5005586;28;19995;-77
2023/06/12 11:16:56;;;;;;;7.80;7.10;;;;;;;;;;5005278;28;20525;-76
2023/06/12 11:19:25;;;;;;;7.22;6.57;;;;;;;;;;5005115;28;20337;-76
2023/06/12 11:21:50;;;;;;;8.00;7.27;;;;;;;;;;5005093;28;20044;-76
2023/06/12 11:24:17;;;;;;;8.07;7.35;;;;;;;;;;5005231;28;20018;-76
2023/06/12 11:26:42;;;;;;;8.00;7.30;;;;;;;;;;5005155;28;20021;-76
2023/06/12 11:29:15;;;;;;;9.63;7.60;;;;;;;;;;5005679;28;20380;-76
2023/06/12 11:31:40;;;;;;;7.82;7.18;;;;;;;;;;5020297;28;20116;-75
2023/06/12 11:34:06;;;;;;;7.63;7.03;;;;;;;;;;5004943;28;20121;-75
2023/06/12 11:36:31;;;;;;;6.72;6.20;;;;;;;;;;5005063;28;20018;-76
2023/06/12 11:38:57;;;;;;;6.35;5.85;;;;;;;;;;4987778;28;20038;-75
2023/06/12 11:41:22;;;;;;;5.97;5.38;;;;;;;;;;5004455;28;20333;-76
2023/06/12 11:43:47;;;;;;;4.93;4.63;;;;;;;;;;5005148;28;20096;-77
2023/06/12 11:46:13;;;;;;;5.40;4.97;;;;;;;;;;5004908;28;20037;-76
2023/06/12 11:48:38;;;;;;;4.70;4.30;;;;;;;;;;5004578;28;20033;-76
2023/06/12 11:51:04;;;;;;;4.45;4.15;;;;;;;;;;5005307;28;20481;-76
2023/06/12 11:53:30;;;;;;;4.00;3.70;;;;;;;;;;5003596;28;20407;-76
2023/06/12 11:56:00;;;;;;;4.45;3.90;;;;;;;;;;5004827;28;20032;-75
2023/06/12 11:58:36;;;;;;;4.18;3.53;;;;;;;;;;5005100;28;20065;-76
2023/06/12 12:01:12;;;;;;;3.80;3.50;;;;;;;;;;5003903;28;20033;-77
2023/06/12 12:03:39;;;;;;;4.43;3.97;;;;;;;;;;5004484;28;20022;-77
2023/06/12 12:06:04;;;;;;;4.57;4.18;;;;;;;;;;5004414;28;20025;-76
2023/06/12 12:08:32;;;;;;;5.28;4.82;;;;;;;;;;5003927;28;20021;-76
2023/06/12 12:10:57;;;;;;;5.57;5.18;;;;;;;;;;5003867;28;20026;-75
2023/06/12 12:13:23;;;;;;;6.55;6.05;;;;;;;;;;5004453;28;20440;-76
2023/06/12 12:15:48;;;;;;;6.20;5.80;;;;;;;;;;5004454;28;20064;-77
2023/06/12 12:18:14;;;;;;;7.60;6.50;;;;;;;;;;5004627;28;20061;-76
2023/06/12 12:20:40;;;;;;;7.63;6.97;;;;;;;;;;5004173;28;20040;-75
2023/06/12 12:23:10;;;;;;;8.68;7.28;;;;;;;;;;5003847;28;20468;-76
2023/06/12 12:25:36;;;;;;;9.05;8.25;;;;;;;;;;5003707;28;20041;-75
2023/06/12 12:28:02;;;;;;;9.98;9.18;;;;;;;;;;5003906;28;20358;-76
2023/06/12 12:30:28;;;;;;;10.73;9.82;;;;;;;;;;5003199;28;20113;-78
2023/06/12 12:32:54;;;;;;;10.63;9.60;;;;;;;;;;5003999;28;20510;-76
2023/06/12 12:35:20;;;;;;;10.77;9.93;;;;;;;;;;5003469;28;20457;-76
2023/06/12 12:37:46;;;;;;;11.30;10.23;;;;;;;;;;5003602;28;20068;-76
2023/06/12 12:40:13;;;;;;;14.18;10.85;;;;;;;;;;5003420;28;20343;-74
2023/06/12 12:42:42;;;;;;;11.90;10.85;;;;;;;;;;5003364;28;20044;-77
2023/06/12 12:45:08;;;;;;;11.57;10.57;;;;;;;;;;5003139;28;20029;-76
2023/06/12 12:47:34;;;;;;;12.55;10.60;;;;;;;;;;5003737;28;20555;-75
2023/06/12 12:50:00;;;;;;;13.48;12.07;;;;;;;;;;5003033;28;20030;-76
2023/06/12 12:52:25;;;;;;;13.48;12.07;;;;;;;;;;5003229;28;20026;-74
2023/06/12 12:54:51;;;;;;;13.65;12.45;;;;;;;;;;5004062;28;20057;-74
2023/06/12 12:57:16;;;;;;;14.25;12.80;;;;;;;;;;5003194;28;20088;-76
2023/06/12 12:59:43;;;;;;;14.38;13.02;;;;;;;;;;5004068;28;20452;-77
2023/06/12 13:02:08;;;;;;;14.95;13.55;;;;;;;;;;5003659;28;20127;-77
2023/06/12 13:04:33;;;;;;;16.40;14.90;;;;;;;;;;5003344;28;20468;-75
2023/06/12 13:06:59;;;;;;;16.10;14.60;;;;;;;;;;5003997;28;20022;-76
2023/06/12 13:09:25;;;;;;;17.80;16.08;;;;;;;;;;5003485;28;20025;-76
2023/06/12 13:11:51;;;;;;;17.70;16.30;;;;;;;;;;5003592;28;20065;-76
2023/06/12 13:14:17;;;;;;;18.58;16.67;;;;;;;;;;5003207;28;20069;-76
2023/06/12 13:16:42;;;;;;;18.90;17.15;;;;;;;;;;5003529;28;20818;-77
2023/06/12 13:19:08;;;;;;;17.95;16.27;;;;;;;;;;5002332;28;20033;-76
2023/06/12 13:21:33;;;;;;;16.75;15.30;;;;;;;;;;4987943;28;20510;-74
2023/06/12 13:23:59;;;;;;;17.73;16.27;;;;;;;;;;4995090;28;20045;-74
2023/06/12 13:26:25;;;;;;;18.20;16.40;;;;;;;;;;5020398;28;20057;-74
2023/06/12 13:28:50;;;;;;;19.38;15.88;;;;;;;;;;5002065;28;20022;-74
2023/06/12 13:31:16;;;;;;;19.33;17.40;;;;;;;;;;5002243;28;20353;-74
2023/06/12 13:33:41;;;;;;;18.15;16.50;;;;;;;;;;4988080;28;20040;-74
2023/06/12 13:36:07;;;;;;;18.77;16.88;;;;;;;;;;4995387;28;20057;-74
2023/06/12 13:38:32;;;;;;;20.08;18.27;;;;;;;;;;5002309;28;20037;-76
2023/06/12 13:40:57;;;;;;;19.98;18.17;;;;;;;;;;5003245;28;20045;-75
2023/06/12 13:43:23;;;;;;;20.35;18.55;;;;;;;;;;5000835;28;20032;-77
2023/06/12 13:45:48;;;;;;;19.60;17.83;;;;;;;;;;4991236;28;20030;-77
2023/06/12 13:48:14;;;;;;;20.67;18.60;;;;;;;;;;5000231;28;20469;-75
2023/06/12 13:50:40;;;;;;;19.63;17.73;;;;;;;;;;4989414;28;20560;-74
2023/06/12 13:53:05;;;;;;;20.17;18.50;;;;;;;;;;5002159;28;20028;-75
2023/06/12 13:55:31;;;;;;;21.33;19.33;;;;;;;;;;4989879;28;20048;-74
2023/06/12 13:57:57;;;;;;;20.17;18.27;;;;;;;;;;4987214;28;20144;-75
2023/06/12 14:00:22;;;;;;;21.08;19.17;;;;;;;;;;4982571;28;20040;-76
2023/06/12 14:02:48;;;;;;;21.63;19.67;;;;;;;;;;4981398;28;20029;-74
2023/06/12 14:05:13;;;;;;;22.40;20.25;;;;;;;;;;4984154;28;20045;-76
2023/06/12 14:07:39;;;;;;;22.42;20.02;;;;;;;;;;4987844;28;20018;-75
2023/06/12 14:10:07;;;;;;;21.15;19.15;;;;;;;;;;4992429;28;20398;-75
2023/06/12 14:12:33;;;;;;;22.38;19.85;;;;;;;;;;5002331;28;20032;-75
2023/06/12 14:14:59;;;;;;;23.63;21.33;;;;;;;;;;5001773;28;21086;-75
2023/06/12 14:17:24;;;;;;;22.83;20.63;;;;;;;;;;4984775;28;20052;-74
2023/06/12 14:19:50;;;;;;;23.75;21.55;;;;;;;;;;5002923;28;20025;-74
2023/06/12 14:22:15;;;;;;;22.85;20.40;;;;;;;;;;5001743;28;20044;-77
2023/06/12 14:24:41;;;;;;;25.52;21.30;;;;;;;;;;5002557;28;20058;-74
2023/06/12 14:27:07;;;;;;;23.65;21.45;;;;;;;;;;5002250;28;20143;-75